Time;durP1;ratioP1;P1;durP2;ratioP2;P2;SDS_P1;SDS_P2;PMS_P1;PMS_P2;Temp;Humidity;BMP_temperature;BMP_pressure;BME280_temperature;BME280_humidity;BME280_pressure;Samples;Min_cycle;Max_cycle;Signal;HPM_P1;HPM_P2
2023/08/15 00:00:16;;;;;;;6.30;3.25;;;21.10;99.90;;;;;;5030907;28;20025;-54
2023/08/15 00:02:41;;;;;;;6.55;3.47;;;21.00;99.90;;;;;;5030468;28;20402;-52
2023/08/15 00:05:07;;;;;;;5.20;3.40;;;20.90;99.90;;;;;;5030655;28;20037;-51
2023/08/15 00:07:53;;;;;;;5.03;2.92;;;20.80;99.90;;;;;;5030129;28;20029;-53
2023/08/15 00:10:19;;;;;;;5.57;3.72;;;20.80;99.90;;;;;;5030565;28;20091;-51
2023/08/15 00:12:45;;;;;;;6.82;3.80;;;20.70;99.90;;;;;;5030711;28;20505;-53
2023/08/15 00:15:10;;;;;;;5.82;3.60;;;20.60;99.90;;;;;;5030579;28;20033;-52
2023/08/15 00:17:36;;;;;;;6.15;3.90;;;20.60;99.90;;;;;;5031263;28;20037;-51
2023/08/15 00:20:02;;;;;;;8.20;4.07;;;20.60;99.90;;;;;;5016810;28;20038;-49
2023/08/15 00:22:28;;;;;;;7.65;4.28;;;20.60;99.90;;;;;;5034126;28;20029;-53
2023/08/15 00:24:54;;;;;;;6.25;3.90;;;20.60;99.90;;;;;;5034472;28;20032;-53
2023/08/15 00:27:19;;;;;;;6.50;3.85;;;20.60;99.90;;;;;;5034269;28;20075;-53
2023/08/15 00:29:45;;;;;;;6.10;3.92;;;20.50;99.90;;;;;;5016738;28;20026;-52
2023/08/15 00:32:10;;;;;;;7.35;3.92;;;20.50;99.90;;;;;;5034088;28;20474;-52
2023/08/15 00:34:36;;;;;;;7.40;3.80;;;20.60;99.90;;;;;;5016479;28;20508;-52
2023/08/15 00:37:02;;;;;;;5.80;3.60;;;20.70;99.90;;;;;;5034416;28;20037;-53
2023/08/15 00:39:28;;;;;;;6.63;3.53;;;20.70;99.90;;;;;;5000008;28;20142;-50
2023/08/15 00:41:53;;;;;;;6.32;3.78;;;20.70;99.90;;;;;;5016307;28;20068;-48
2023/08/15 00:44:19;;;;;;;6.45;3.45;;;20.60;99.90;;;;;;5016136;28;20052;-52
2023/08/15 00:46:45;;;;;;;6.72;3.70;;;20.70;99.90;;;;;;5016193;28;20083;-48
2023/08/15 00:49:10;;;;;;;6.20;3.20;;;20.70;99.90;;;;;;5016386;28;20052;-49
2023/08/15 00:51:37;;;;;;;5.05;3.38;;;20.80;99.90;;;;;;5016148;28;20041;-53
2023/08/15 00:54:03;;;;;;;5.75;3.38;;;20.80;99.90;;;;;;5015828;28;20053;-53
2023/08/15 00:56:29;;;;;;;6.63;3.28;;;20.80;99.90;;;;;;5016015;28;20409;-53
2023/08/15 00:58:54;;;;;;;5.93;3.63;;;20.80;99.90;;;;;;5034093;28;20036;-50
2023/08/15 01:01:21;;;;;;;7.07;3.85;;;20.80;99.90;;;;;;5015718;28;20067;-48
2023/08/15 01:03:49;;;;;;;5.07;3.40;;;20.90;99.90;;;;;;5033658;28;20025;-48
2023/08/15 01:06:15;;;;;;;7.38;3.28;;;20.80;99.90;;;;;;5033442;28;20025;-48
2023/08/15 01:08:40;;;;;;;7.43;3.65;;;20.70;99.90;;;;;;5015921;28;20037;-49
2023/08/15 01:11:06;;;;;;;5.95;3.63;;;20.70;99.90;;;;;;5033680;28;20478;-49
2023/08/15 01:13:40;;;;;;;6.78;3.13;;;20.60;99.90;;;;;;5015491;28;20095;-48
2023/08/15 01:16:13;;;;;;;7.78;4.05;;;20.60;99.90;;;;;;5015665;28;20482;-48
2023/08/15 01:18:45;;;;;;;6.70;3.80;;;20.60;99.90;;;;;;5015779;28;20033;-48
2023/08/15 01:21:13;;;;;;;8.43;3.78;;;20.70;99.90;;;;;;5015674;28;20037;-48
2023/08/15 01:23:43;;;;;;;8.00;3.80;;;20.70;99.90;;;;;;5015389;28;20029;-51
2023/08/15 01:26:09;;;;;;;5.53;3.38;;;20.80;99.90;;;;;;5015384;28;20037;-51
2023/08/15 01:28:35;;;;;;;5.50;3.35;;;20.90;99.90;;;;;;5032753;28;20044;-53
2023/08/15 01:31:32;;;;;;;6.78;3.65;;;20.80;99.90;;;;;;5014796;28;20470;-52
2023/08/15 01:34:11;;;;;;;5.75;3.60;;;20.90;99.90;;;;;;5015431;28;20033;-48
2023/08/15 01:36:51;;;;;;;5.70;3.42;;;20.80;99.90;;;;;;5015199;28;20051;-50
2023/08/15 01:39:23;;;;;;;6.32;3.63;;;20.90;99.90;;;;;;5015415;28;20132;-48
2023/08/15 01:41:52;;;;;;;6.22;3.42;;;20.80;99.90;;;;;;5015739;28;20148;-47
2023/08/15 01:44:18;;;;;;;6.95;3.35;;;20.90;99.90;;;;;;5015946;28;20033;-49
2023/08/15 01:46:46;;;;;;;6.28;3.40;;;20.90;99.90;;;;;;5017073;28;20029;-51
2023/08/15 01:49:13;;;;;;;5.68;3.50;;;20.90;99.90;;;;;;5017107;28;20037;-51
2023/08/15 01:51:38;;;;;;;5.75;2.95;;;20.90;99.90;;;;;;5016977;28;20496;-52
2023/08/15 01:54:06;;;;;;;5.97;3.35;;;20.90;99.90;;;;;;5016404;28;20037;-49
2023/08/15 01:56:32;;;;;;;7.15;3.17;;;21.00;99.90;;;;;;5015871;28;20037;-50
2023/08/15 01:58:57;;;;;;;5.90;3.22;;;21.10;99.90;;;;;;5015043;28;20085;-49
2023/08/15 02:01:23;;;;;;;6.85;3.60;;;21.10;99.90;;;;;;5014762;28;20044;-53
2023/08/15 02:03:49;;;;;;;5.40;3.20;;;21.10;99.90;;;;;;5032497;28;20540;-48
2023/08/15 02:06:14;;;;;;;8.35;3.58;;;21.10;99.90;;;;;;5032406;28;20353;-50
2023/08/15 02:08:40;;;;;;;7.50;3.70;;;21.10;99.90;;;;;;5014769;28;20029;-49
2023/08/15 02:11:06;;;;;;;5.93;3.70;;;21.10;99.90;;;;;;5032855;28;20030;-49
2023/08/15 02:13:33;;;;;;;5.90;3.38;;;21.10;99.90;;;;;;5014725;28;20032;-52
2023/08/15 02:16:02;;;;;;;6.53;3.80;;;21.00;99.90;;;;;;5014403;28;20029;-51
2023/08/15 02:18:31;;;;;;;;;;;21.00;99.90;;;;;;4998846;28;20500;-49
2023/08/15 02:20:56;;;;;;;;;;;21.00;99.90;;;;;;5015106;28;21903;-51
2023/08/15 02:23:22;;;;;;;6.95;3.13;;;21.00;99.90;;;;;;5032038;28;20442;-51
2023/08/15 02:25:48;;;;;;;11.43;4.55;;;21.10;99.90;;;;;;5032376;28;20498;-49
2023/08/15 02:28:14;;;;;;;4.70;3.58;;;21.10;99.90;;;;;;5032083;28;20072;-50
2023/08/15 02:30:40;;;;;;;6.43;3.95;;;21.10;99.90;;;;;;5014486;28;20124;-49
2023/08/15 02:33:06;;;;;;;5.85;3.90;;;21.10;99.90;;;;;;5031764;28;20371;-48
2023/08/15 02:35:33;;;;;;;5.05;3.90;;;21.20;99.90;;;;;;5014578;28;20056;-48
2023/08/15 02:37:59;;;;;;;7.53;4.47;;;21.20;99.90;;;;;;5032102;28;20033;-50
2023/08/15 02:40:26;;;;;;;15.88;8.82;;;21.20;99.90;;;;;;5014043;28;20037;-49
2023/08/15 02:42:51;;;;;;;20.20;10.30;;;21.20;99.90;;;;;;5014646;28;20159;-48
2023/08/15 02:45:17;;;;;;;5.63;4.18;;;21.20;99.90;;;;;;5014423;28;20104;-52
2023/08/15 02:47:44;;;;;;;19.95;10.18;;;21.20;99.90;;;;;;5014133;28;20032;-48
2023/08/15 02:50:11;;;;;;;5.80;3.80;;;21.30;99.90;;;;;;5014526;28;20368;-49
2023/08/15 02:52:37;;;;;;;14.10;8.30;;;21.30;99.90;;;;;;5031596;28;20025;-48
2023/08/15 02:55:03;;;;;;;8.25;4.82;;;21.40;99.90;;;;;;5013971;28;20033;-52
2023/08/15 02:57:28;;;;;;;20.20;11.32;;;21.30;99.90;;;;;;5031660;28;20362;-48
2023/08/15 02:59:54;;;;;;;11.70;6.35;;;21.30;99.90;;;;;;5031754;28;20025;-51
2023/08/15 03:02:20;;;;;;;11.95;7.35;;;21.30;99.90;;;;;;5013707;28;20040;-50
2023/08/15 03:04:45;;;;;;;12.80;7.15;;;21.30;99.90;;;;;;5031649;28;20091;-50
2023/08/15 03:07:11;;;;;;;10.48;6.20;;;21.20;99.90;;;;;;5013435;28;20474;-49
2023/08/15 03:09:37;;;;;;;9.32;5.55;;;21.20;99.90;;;;;;5013910;28;20464;-51
2023/08/15 03:12:03;;;;;;;9.60;5.55;;;21.20;99.90;;;;;;5031324;28;20036;-50
2023/08/15 03:14:29;;;;;;;10.00;4.55;;;21.30;99.90;;;;;;5013761;28;20032;-53
2023/08/15 03:16:56;;;;;;;7.35;4.20;;;21.30;99.90;;;;;;5013337;28;20037;-53
2023/08/15 03:19:22;;;;;;;11.05;4.18;;;21.40;99.90;;;;;;5013454;28;20601;-53
2023/08/15 03:21:48;;;;;;;6.78;3.67;;;21.50;99.90;;;;;;5030966;28;20108;-50
2023/08/15 03:24:15;;;;;;;6.57;4.32;;;21.50;99.90;;;;;;5013351;28;20532;-53
2023/08/15 03:26:42;;;;;;;5.90;3.78;;;21.60;99.90;;;;;;5013239;28;20432;-51
2023/08/15 03:29:07;;;;;;;6.53;3.63;;;21.60;99.90;;;;;;5013385;28;20026;-50
2023/08/15 03:31:33;;;;;;;8.80;3.60;;;21.60;99.90;;;;;;5030675;28;20405;-52
2023/08/15 03:33:59;;;;;;;7.03;4.10;;;21.60;99.90;;;;;;5013103;28;20036;-49
2023/08/15 03:36:28;;;;;;;9.90;3.90;;;21.50;99.90;;;;;;5012995;28;20371;-53
2023/08/15 03:38:54;;;;;;;8.88;4.90;;;21.50;99.90;;;;;;5013358;28;20041;-53
2023/08/15 03:41:20;;;;;;;9.05;4.88;;;21.40;99.90;;;;;;5030684;28;20029;-53
2023/08/15 03:43:46;;;;;;;6.75;4.05;;;21.40;99.90;;;;;;5013056;28;20033;-51
2023/08/15 03:46:12;;;;;;;11.23;5.45;;;21.30;99.90;;;;;;5030494;28;20025;-53
2023/08/15 03:48:38;;;;;;;8.02;4.60;;;21.20;99.90;;;;;;5013093;28;20490;-49
2023/08/15 03:51:04;;;;;;;7.18;4.18;;;21.20;99.90;;;;;;5013065;28;20073;-49
2023/08/15 03:53:29;;;;;;;7.40;4.47;;;21.10;99.90;;;;;;5012064;28;20108;-50
2023/08/15 03:55:57;;;;;;;7.90;4.78;;;21.00;99.90;;;;;;5012913;28;20029;-52
2023/08/15 03:58:24;;;;;;;7.15;4.38;;;20.90;99.90;;;;;;5012999;28;20039;-51
2023/08/15 04:00:50;;;;;;;9.63;4.32;;;20.90;99.90;;;;;;5012706;28;20112;-51
2023/08/15 04:03:16;;;;;;;7.60;4.60;;;20.90;99.90;;;;;;5012513;28;20141;-51
2023/08/15 04:05:47;;;;;;;10.48;4.90;;;20.80;99.90;;;;;;5012817;28;20169;-50
2023/08/15 04:08:14;;;;;;;7.72;4.43;;;20.70;99.90;;;;;;5012552;28;20040;-51
2023/08/15 04:10:40;;;;;;;8.73;4.88;;;20.80;99.90;;;;;;5012865;28;20117;-52
2023/08/15 04:13:07;;;;;;;8.05;4.43;;;20.80;99.90;;;;;;5012390;28;20120;-52
2023/08/15 04:15:37;;;;;;;8.52;4.95;;;20.70;99.90;;;;;;5030524;28;20029;-47
2023/08/15 04:18:05;;;;;;;7.70;4.75;;;20.70;99.90;;;;;;5012551;28;20045;-48
2023/08/15 04:20:31;;;;;;;7.15;4.07;;;20.70;99.90;;;;;;5012586;28;20025;-51
2023/08/15 04:22:57;;;;;;;7.80;4.40;;;20.70;99.90;;;;;;5012538;28;20040;-50
2023/08/15 04:25:25;;;;;;;7.35;4.60;;;20.70;99.90;;;;;;5012636;28;20080;-49
2023/08/15 04:27:51;;;;;;;7.85;4.07;;;20.70;99.90;;;;;;5012458;28;20025;-48
2023/08/15 04:30:18;;;;;;;8.38;4.03;;;20.70;99.90;;;;;;5030388;28;20029;-49
2023/08/15 04:32:46;;;;;;;10.10;4.35;;;20.70;99.90;;;;;;5012355;28;20400;-50
2023/08/15 04:35:12;;;;;;;7.72;4.18;;;20.60;99.90;;;;;;5030352;28;20038;-51
2023/08/15 04:37:38;;;;;;;7.00;3.92;;;20.60;99.90;;;;;;5012496;28;20053;-53
2023/08/15 04:40:05;;;;;;;17.17;9.20;;;20.60;99.90;;;;;;5012524;28;20464;-51
2023/08/15 04:42:31;;;;;;;9.15;4.38;;;20.70;99.90;;;;;;5012055;28;20041;-48
2023/08/15 04:44:56;;;;;;;8.70;4.22;;;20.60;99.90;;;;;;5012492;28;20116;-51
2023/08/15 04:47:23;;;;;;;21.08;9.95;;;20.70;99.90;;;;;;5012415;28;20026;-52
2023/08/15 04:49:48;;;;;;;9.02;4.88;;;20.70;99.90;;;;;;5030193;28;20032;-52
2023/08/15 04:52:15;;;;;;;10.80;5.97;;;20.70;99.90;;;;;;5012161;28;20041;-52
2023/08/15 04:54:41;;;;;;;12.73;6.93;;;20.60;99.90;;;;;;5030079;28;20053;-50
2023/08/15 04:57:08;;;;;;;11.02;5.32;;;20.60;99.90;;;;;;5012451;28;20435;-50
2023/08/15 04:59:33;;;;;;;8.35;4.00;;;20.60;99.90;;;;;;5030120;28;20080;-52
2023/08/15 05:01:59;;;;;;;14.77;7.13;;;20.60;99.90;;;;;;5030167;28;20025;-50
2023/08/15 05:04:24;;;;;;;11.68;4.55;;;20.60;99.90;;;;;;5014124;28;20034;-52
2023/08/15 05:06:52;;;;;;;7.22;4.05;;;20.50;99.90;;;;;;5015735;28;20452;-51
2023/08/15 05:09:17;;;;;;;9.50;4.70;;;20.50;99.90;;;;;;5015961;28;20056;-53
2023/08/15 05:11:45;;;;;;;9.23;5.00;;;20.60;99.90;;;;;;5015775;28;20033;-48
2023/08/15 05:14:11;;;;;;;11.27;5.83;;;20.60;99.90;;;;;;5015691;28;20025;-50
2023/08/15 05:16:38;;;;;;;8.25;4.28;;;20.50;99.90;;;;;;5033333;28;20796;-50
2023/08/15 05:19:04;;;;;;;9.13;4.15;;;20.60;99.90;;;;;;5015584;28;20037;-50
2023/08/15 05:21:30;;;;;;;8.55;4.65;;;20.60;99.90;;;;;;5015348;28;20552;-50
2023/08/15 05:23:55;;;;;;;7.35;4.05;;;20.50;99.90;;;;;;5015481;28;20030;-52
2023/08/15 05:26:21;;;;;;;8.20;4.15;;;20.60;99.90;;;;;;5015393;28;20091;-49
2023/08/15 05:28:46;;;;;;;8.90;3.95;;;20.50;99.90;;;;;;5015730;28;20025;-50
2023/08/15 05:31:14;;;;;;;9.80;4.72;;;20.40;99.90;;;;;;5015651;28;20025;-52
2023/08/15 05:33:40;;;;;;;7.03;3.90;;;20.40;99.90;;;;;;5015392;28;20029;-50
2023/08/15 05:36:06;;;;;;;10.15;6.10;;;20.40;99.90;;;;;;5015402;28;20087;-51
2023/08/15 05:38:32;;;;;;;10.23;4.82;;;20.30;99.90;;;;;;5015535;28;20029;-50
2023/08/15 05:40:58;;;;;;;5.97;3.72;;;20.30;99.90;;;;;;5015562;28;20568;-54
2023/08/15 05:43:23;;;;;;;7.43;4.00;;;20.30;99.90;;;;;;5032895;28;20056;-53
2023/08/15 05:45:49;;;;;;;7.13;4.43;;;20.20;99.90;;;;;;5015371;28;20033;-54
2023/08/15 05:48:15;;;;;;;9.70;4.28;;;20.20;99.90;;;;;;5032548;28;20045;-51
2023/08/15 05:50:40;;;;;;;10.65;4.18;;;20.30;99.90;;;;;;5032872;28;20048;-50
2023/08/15 05:53:06;;;;;;;6.65;4.10;;;20.30;99.90;;;;;;5033023;28;20389;-51
2023/08/15 05:55:31;;;;;;;12.05;5.18;;;20.20;99.90;;;;;;5032704;28;20036;-49
2023/08/15 05:57:57;;;;;;;9.57;5.50;;;20.30;99.90;;;;;;5032628;28;20025;-53
2023/08/15 06:00:23;;;;;;;10.70;5.45;;;20.30;99.90;;;;;;5032842;28;20030;-54
2023/08/15 06:02:48;;;;;;;9.50;5.00;;;20.30;99.90;;;;;;5032208;28;20112;-50
2023/08/15 06:05:14;;;;;;;10.95;5.65;;;20.30;99.90;;;;;;5033027;28;20025;-53
2023/08/15 06:07:41;;;;;;;11.88;5.55;;;20.40;99.90;;;;;;5046621;22;20050;-53
2023/08/15 06:10:07;;;;;;;10.55;4.60;;;20.40;99.90;;;;;;5032564;28;20544;-51
2023/08/15 06:12:33;;;;;;;10.07;4.20;;;20.30;99.90;;;;;;5032178;28;20049;-49
2023/08/15 06:14:58;;;;;;;10.52;4.45;;;20.30;99.90;;;;;;5032256;28;20494;-52
2023/08/15 06:17:24;;;;;;;7.88;4.53;;;20.20;99.90;;;;;;5032056;28;20408;-53
2023/08/15 06:19:50;;;;;;;10.43;3.70;;;20.20;99.90;;;;;;5032164;28;20072;-49
2023/08/15 06:22:15;;;;;;;6.53;3.40;;;20.20;99.90;;;;;;5032337;28;20045;-51
2023/08/15 06:24:41;;;;;;;6.50;3.20;;;20.00;99.90;;;;;;5032079;28;20028;-48
2023/08/15 06:27:07;;;;;;;5.75;3.30;;;19.90;99.90;;;;;;5031858;28;20155;-49
2023/08/15 06:29:32;;;;;;;6.38;3.38;;;19.80;99.90;;;;;;5032069;28;20029;-49
2023/08/15 06:31:59;;;;;;;7.88;3.35;;;19.80;99.90;;;;;;5014134;28;20045;-52
2023/08/15 06:34:25;;;;;;;6.63;3.20;;;19.70;99.90;;;;;;5031817;28;20048;-49
2023/08/15 06:36:50;;;;;;;6.65;2.72;;;19.70;99.90;;;;;;5032033;28;20029;-48
2023/08/15 06:39:16;;;;;;;8.68;3.10;;;19.60;99.90;;;;;;5031952;28;20501;-49
2023/08/15 06:41:42;;;;;;;7.60;3.17;;;19.60;99.90;;;;;;5031746;28;20036;-48
2023/08/15 06:44:08;;;;;;;8.80;3.38;;;19.60;99.90;;;;;;5013934;28;20492;-48
2023/08/15 06:46:35;;;;;;;6.88;2.67;;;19.50;99.90;;;;;;5031596;28;20060;-49
2023/08/15 06:49:01;;;;;;;6.57;2.65;;;19.50;99.90;;;;;;5031788;28;20105;-51
2023/08/15 06:51:26;;;;;;;9.05;2.83;;;19.50;99.90;;;;;;5032014;28;20120;-51
2023/08/15 06:53:54;;;;;;;7.30;3.45;;;19.50;99.90;;;;;;5031639;28;20036;-49
2023/08/15 06:56:20;;;;;;;6.75;3.05;;;19.60;99.90;;;;;;5031477;28;20037;-50
2023/08/15 06:58:45;;;;;;;8.88;3.13;;;19.60;99.90;;;;;;5031737;28;20088;-51
2023/08/15 07:01:12;;;;;;;5.38;2.35;;;19.60;99.90;;;;;;5031479;28;20038;-51
2023/08/15 07:03:37;;;;;;;6.50;2.67;;;19.60;99.90;;;;;;5031159;28;20030;-49
2023/08/15 07:06:04;;;;;;;5.65;2.75;;;19.70;99.90;;;;;;5031615;28;20079;-49
2023/08/15 07:08:30;;;;;;;5.13;2.30;;;19.70;99.90;;;;;;5031629;28;20095;-50
2023/08/15 07:10:57;;;;;;;5.65;1.98;;;19.70;99.90;;;;;;5031857;28;20053;-52
2023/08/15 07:13:23;;;;;;;7.10;2.50;;;19.70;99.90;;;;;;5013642;28;20033;-53
2023/08/15 07:15:57;;;;;;;6.47;3.33;;;19.80;99.90;;;;;;5032203;28;20033;-50
2023/08/15 07:18:23;;;;;;;4.93;2.47;;;20.00;99.90;;;;;;5031985;28;20495;-50
2023/08/15 07:20:52;;;;;;;7.65;3.13;;;20.10;99.90;;;;;;5032440;28;20124;-53
2023/08/15 07:23:18;;;;;;;4.88;2.20;;;20.20;99.90;;;;;;5032293;28;20129;-51
2023/08/15 07:25:44;;;;;;;4.32;2.20;;;20.30;99.90;;;;;;5032406;28;20560;-50
2023/08/15 07:28:10;;;;;;;5.95;2.63;;;20.40;99.90;;;;;;5031355;28;20065;-54
2023/08/15 07:30:36;;;;;;;7.90;2.67;;;20.50;99.90;;;;;;5031259;28;20037;-52
2023/08/15 07:33:02;;;;;;;8.93;2.60;;;20.60;99.90;;;;;;5030702;28;20037;-51
2023/08/15 07:35:28;;;;;;;4.88;2.13;;;20.80;99.90;;;;;;5030954;28;20402;-52
2023/08/15 07:37:53;;;;;;;4.47;2.10;;;21.00;99.90;;;;;;5030760;28;20041;-53
2023/08/15 07:40:21;;;;;;;3.28;1.80;;;21.20;99.90;;;;;;5030901;28;20039;-51
2023/08/15 07:42:52;;;;;;;4.78;2.40;;;21.50;99.90;;;;;;5030538;28;20037;-51
2023/08/15 07:45:19;;;;;;;6.03;2.13;;;21.60;99.90;;;;;;5030650;28;20076;-51
2023/08/15 07:47:48;;;;;;;4.80;2.10;;;21.60;99.90;;;;;;5030679;28;20064;-49
2023/08/15 07:50:18;;;;;;;6.85;1.80;;;21.60;99.90;;;;;;5030909;28;20033;-54
2023/08/15 07:52:45;;;;;;;4.88;1.80;;;21.70;99.90;;;;;;5030364;28;20030;-52
2023/08/15 07:55:11;;;;;;;5.70;2.13;;;21.90;99.90;;;;;;5030764;28;20041;-51
2023/08/15 07:57:37;;;;;;;7.38;2.33;;;22.00;99.90;;;;;;5030463;28;20037;-50
2023/08/15 08:00:04;;;;;;;5.53;2.40;;;22.10;99.90;;;;;;5030551;28;20532;-51
2023/08/15 08:02:38;;;;;;;6.05;2.08;;;22.30;99.90;;;;;;5030332;28;20044;-53
2023/08/15 08:05:06;;;;;;;3.63;2.17;;;22.50;99.90;;;;;;5030634;28;20029;-52
2023/08/15 08:07:33;;;;;;;4.40;1.88;;;22.50;99.90;;;;;;5030318;28;20490;-51
2023/08/15 08:09:59;;;;;;;4.43;1.88;;;22.40;99.90;;;;;;5012895;28;20449;-48
2023/08/15 08:12:28;;;;;;;4.07;1.58;;;22.40;99.90;;;;;;5030180;28;20063;-50
2023/08/15 08:14:53;;;;;;;4.47;1.75;;;22.30;99.90;;;;;;5030456;28;20090;-48
2023/08/15 08:17:19;;;;;;;4.03;1.40;;;22.30;99.90;;;;;;5030496;28;20029;-51
2023/08/15 08:19:45;;;;;;;2.90;1.35;;;22.30;99.90;;;;;;5030513;28;20029;-50
2023/08/15 08:22:10;;;;;;;3.55;1.27;;;22.40;99.90;;;;;;5030586;28;20396;-50
2023/08/15 08:24:36;;;;;;;7.68;2.00;;;22.40;99.90;;;;;;5030327;28;20033;-49
2023/08/15 08:27:02;;;;;;;4.00;1.63;;;22.40;99.90;;;;;;5030171;28;20022;-49
2023/08/15 08:29:29;;;;;;;3.42;0.90;;;22.50;99.90;;;;;;5030416;28;20474;-50
2023/08/15 08:31:54;;;;;;;3.33;1.02;;;22.50;99.90;;;;;;5030167;28;20068;-49
2023/08/15 08:34:21;;;;;;;2.65;0.90;;;22.40;99.90;;;;;;5030199;28;20030;-54
2023/08/15 08:36:47;;;;;;;2.97;1.10;;;22.30;99.90;;;;;;5030211;28;20506;-51
2023/08/15 08:39:12;;;;;;;3.72;1.20;;;22.50;99.90;;;;;;5032116;28;20091;-53
2023/08/15 08:41:39;;;;;;;3.80;1.10;;;22.60;99.90;;;;;;5033962;28;20037;-52
2023/08/15 08:44:05;;;;;;;1.70;1.00;;;22.70;99.90;;;;;;5034064;28;20037;-50
2023/08/15 08:46:33;;;;;;;1.75;0.90;;;22.80;99.90;;;;;;5034286;28;20407;-49
2023/08/15 08:49:00;;;;;;;3.05;0.98;;;22.80;99.90;;;;;;5034179;28;20033;-49
2023/08/15 08:51:27;;;;;;;2.53;0.77;;;22.80;99.90;;;;;;5033829;28;20482;-55
2023/08/15 08:53:54;;;;;;;1.30;0.80;;;22.90;99.90;;;;;;5033789;28;20494;-50
2023/08/15 08:56:25;;;;;;;2.95;0.80;;;23.10;99.90;;;;;;5033872;28;20040;-51
2023/08/15 08:58:58;;;;;;;8.55;3.97;;;23.20;99.90;;;;;;5016244;28;20401;-50
2023/08/15 09:01:27;;;;;;;2.63;0.90;;;23.30;99.90;;;;;;5033772;28;20073;-50
2023/08/15 09:03:52;;;;;;;12.82;5.88;;;23.30;99.90;;;;;;5033836;28;20063;-51
2023/08/15 09:06:18;;;;;;;4.10;1.70;;;23.40;99.90;;;;;;5033822;28;20104;-51
2023/08/15 09:08:43;;;;;;;7.72;3.75;;;23.30;99.90;;;;;;5033862;28;20129;-50
2023/08/15 09:11:09;;;;;;;4.03;2.03;;;23.40;99.90;;;;;;5016316;28;20064;-50
2023/08/15 09:13:35;;;;;;;13.30;7.00;;;23.30;99.90;;;;;;5033426;28;20029;-50
2023/08/15 09:16:03;;;;;;;5.00;2.28;;;23.40;99.90;;;;;;5033513;28;20048;-54
2023/08/15 09:18:32;;;;;;;;;;;23.40;99.90;;;;;;5034217;28;20021;-53
2023/08/15 09:20:58;;;;;;;4.95;2.60;;;23.40;99.90;;;;;;5015683;28;19979;-54
2023/08/15 09:23:23;;;;;;;5.40;2.40;;;23.50;99.90;;;;;;5033152;28;20073;-49
2023/08/15 09:25:53;;;;;;;2.78;1.58;;;23.60;99.90;;;;;;5033441;28;20030;-52
2023/08/15 09:28:19;;;;;;;2.95;1.33;;;23.60;99.90;;;;;;5033146;28;20033;-53
2023/08/15 09:30:54;;;;;;;3.42;1.30;;;23.70;99.90;;;;;;5033359;28;20026;-52
2023/08/15 09:33:20;;;;;;;4.57;1.00;;;23.90;99.90;;;;;;5033037;28;20429;-49
2023/08/15 09:35:45;;;;;;;3.75;1.42;;;23.90;99.90;;;;;;5033275;28;20037;-50
2023/08/15 09:38:12;;;;;;;2.40;0.90;;;23.90;99.90;;;;;;5032965;28;20029;-51
2023/08/15 09:40:42;;;;;;;5.05;1.70;;;23.70;99.90;;;;;;5033192;28;20033;-52
2023/08/15 09:43:15;;;;;;;4.00;1.27;;;24.00;99.90;;;;;;5032607;28;20044;-51
2023/08/15 09:45:41;;;;;;;2.58;1.17;;;24.10;99.90;;;;;;5033009;28;20026;-49
2023/08/15 09:48:08;;;;;;;6.55;3.33;;;24.20;99.90;;;;;;5032650;28;20032;-50
2023/08/15 09:50:34;;;;;;;3.58;1.27;;;24.30;99.90;;;;;;5031793;28;20034;-51
2023/08/15 09:53:03;;;;;;;3.45;1.50;;;24.40;99.90;;;;;;5032606;28;20064;-52
2023/08/15 09:55:30;;;;;;;3.05;1.05;;;24.50;99.90;;;;;;5032987;28;20541;-52
2023/08/15 09:57:56;;;;;;;4.60;2.08;;;24.60;99.90;;;;;;5032785;28;20065;-51
2023/08/15 10:00:21;;;;;;;2.13;1.10;;;24.70;99.90;;;;;;5032764;28;20099;-51
2023/08/15 10:03:00;;;;;;;3.88;1.58;;;24.60;99.90;;;;;;5032313;28;20037;-52
2023/08/15 10:05:30;;;;;;;;;;;24.70;99.90;;;;;;5033295;28;20478;-55
2023/08/15 10:07:58;;;;;;;2.33;1.02;;;24.70;99.90;;;;;;5032328;28;19912;-50
2023/08/15 10:10:26;;;;;;;5.72;1.55;;;24.80;99.90;;;;;;5032593;28;20113;-50
2023/08/15 10:12:53;;;;;;;3.83;1.40;;;24.90;99.90;;;;;;5032261;28;20490;-52
2023/08/15 10:15:21;;;;;;;3.33;1.25;;;25.00;99.90;;;;;;5032338;28;20033;-52
2023/08/15 10:17:48;;;;;;;3.28;1.40;;;24.90;99.90;;;;;;5032489;28;20029;-54
2023/08/15 10:20:20;;;;;;;4.78;1.63;;;25.00;99.90;;;;;;5014650;28;20064;-50
2023/08/15 10:22:50;;;;;;;7.00;2.45;;;25.00;99.90;;;;;;5031924;28;20509;-51
2023/08/15 10:25:22;;;;;;;2.83;1.15;;;25.20;99.90;;;;;;5032154;28;20033;-51
2023/08/15 10:27:50;;;;;;;3.55;1.33;;;25.20;99.90;;;;;;5031924;28;20060;-50
2023/08/15 10:30:41;;;;;;;6.05;3.25;;;25.10;99.90;;;;;;5032075;28;20033;-50
2023/08/15 10:33:13;;;;;;;7.32;3.20;;;25.40;99.90;;;;;;5031897;28;20405;-49
2023/08/15 10:36:02;;;;;;;4.95;2.33;;;25.50;99.90;;;;;;5031981;28;20536;-50
2023/08/15 10:38:38;;;;;;;4.75;2.00;;;25.60;99.90;;;;;;5004029;28;20206;-51
2023/08/15 10:41:15;;;;;;;5.82;2.47;;;25.60;99.90;;;;;;5031798;28;20056;-50
2023/08/15 10:43:49;;;;;;;5.20;2.17;;;25.50;99.90;;;;;;5031672;28;20045;-50
2023/08/15 10:46:24;;;;;;;4.68;2.00;;;25.70;99.90;;;;;;5031744;28;20112;-50
2023/08/15 10:48:54;;;;;;;4.88;1.50;;;25.80;99.90;;;;;;5031936;28;20082;-52
2023/08/15 10:51:22;;;;;;;2.92;1.17;;;25.90;99.90;;;;;;5031509;28;20029;-49
2023/08/15 10:53:56;;;;;;;5.45;1.58;;;25.90;99.90;;;;;;5031629;28;20394;-51
2023/08/15 10:56:29;;;;;;;5.40;2.22;;;25.70;99.90;;;;;;5031369;28;20029;-51
2023/08/15 10:58:56;;;;;;;4.65;1.80;;;25.70;99.90;;;;;;5031622;28;20025;-51
2023/08/15 11:01:26;;;;;;;5.40;2.78;;;25.80;99.90;;;;;;5031143;28;20037;-49
2023/08/15 11:03:54;;;;;;;6.15;2.58;;;25.90;99.90;;;;;;5031829;28;20029;-55
2023/08/15 11:06:21;;;;;;;6.40;1.70;;;26.10;99.90;;;;;;5031335;28;20033;-50
2023/08/15 11:08:50;;;;;;;5.82;1.70;;;25.90;99.90;;;;;;5031367;28;20038;-54
2023/08/15 11:11:17;;;;;;;3.58;1.92;;;25.80;99.90;;;;;;5031196;28;20021;-50
2023/08/15 11:13:45;;;;;;;7.25;3.42;;;25.60;99.90;;;;;;5031084;28;20107;-53
2023/08/15 11:16:13;;;;;;;5.32;2.22;;;25.50;99.90;;;;;;5031152;28;20021;-52
2023/08/15 11:18:41;;;;;;;3.72;1.60;;;25.60;99.90;;;;;;5031228;28;20036;-52
2023/08/15 11:21:09;;;;;;;5.05;1.63;;;25.50;99.90;;;;;;5031025;28;20041;-51
2023/08/15 11:23:35;;;;;;;6.28;2.47;;;25.40;99.90;;;;;;5030894;28;20026;-52
2023/08/15 11:26:10;;;;;;;8.05;3.08;;;25.30;99.90;;;;;;5030793;28;20064;-54
2023/08/15 11:28:37;;;;;;;5.82;1.85;;;25.30;99.90;;;;;;5031218;28;20116;-53
2023/08/15 11:31:06;;;;;;;8.25;3.33;;;25.20;99.90;;;;;;5013331;28;20075;-56
2023/08/15 11:33:32;;;;;;;5.22;2.20;;;25.20;99.90;;;;;;5030994;28;20025;-51
2023/08/15 11:35:59;;;;;;;5.55;2.75;;;25.20;99.90;;;;;;5030911;28;20083;-49
2023/08/15 11:38:30;;;;;;;7.40;3.00;;;25.20;99.90;;;;;;5030790;28;20063;-50
2023/08/15 11:41:01;;;;;;;8.20;2.00;;;25.20;99.90;;;;;;5030901;28;20117;-49
2023/08/15 11:43:28;;;;;;;8.10;2.63;;;25.10;99.90;;;;;;5013225;28;20025;-52
2023/08/15 11:45:54;;;;;;;8.05;3.15;;;25.10;99.90;;;;;;5030867;28;20453;-49
2023/08/15 11:48:20;;;;;;;7.22;3.28;;;25.20;99.90;;;;;;5031084;28;20409;-50
2023/08/15 11:50:46;;;;;;;6.47;2.83;;;25.10;99.90;;;;;;5030835;28;20036;-55
2023/08/15 11:53:14;;;;;;;6.07;3.00;;;25.20;99.90;;;;;;5030426;28;20044;-51
2023/08/15 11:55:40;;;;;;;3.58;1.58;;;25.20;99.90;;;;;;5030972;28;20371;-51
2023/08/15 11:58:26;;;;;;;4.10;1.65;;;25.20;99.90;;;;;;5030444;28;20033;-54
2023/08/15 12:00:54;;;;;;;4.68;2.58;;;25.10;99.90;;;;;;5030717;28;20113;-53
2023/08/15 12:03:20;;;;;;;4.68;2.38;;;25.10;99.90;;;;;;5030468;28;20061;-53
2023/08/15 12:05:49;;;;;;;5.55;2.08;;;25.20;99.90;;;;;;5030488;28;20075;-51
2023/08/15 12:08:16;;;;;;;5.57;2.00;;;25.20;99.90;;;;;;5044958;22;20049;-48
2023/08/15 12:10:43;;;;;;;4.25;1.85;;;25.20;99.90;;;;;;5030968;28;20509;-49
2023/08/15 12:13:09;;;;;;;3.63;1.38;;;25.10;99.90;;;;;;5012811;28;20513;-49
2023/08/15 12:15:34;;;;;;;7.78;2.42;;;25.20;99.90;;;;;;5034616;28;20029;-49
2023/08/15 12:18:00;;;;;;;6.13;2.83;;;25.20;99.90;;;;;;5034840;28;20021;-51
2023/08/15 12:20:25;;;;;;;3.47;1.80;;;25.20;99.90;;;;;;5034960;28;20461;-49
2023/08/15 12:22:51;;;;;;;4.45;1.92;;;25.20;99.90;;;;;;5034602;28;20033;-49
2023/08/15 12:25:17;;;;;;;6.63;3.05;;;25.30;99.90;;;;;;5017218;28;20105;-51
2023/08/15 12:27:42;;;;;;;3.08;1.40;;;25.40;99.90;;;;;;5034957;28;20130;-51
2023/08/15 12:30:08;;;;;;;4.53;1.30;;;25.40;99.90;;;;;;5034712;28;20032;-49
2023/08/15 12:32:34;;;;;;;6.90;3.08;;;25.40;99.90;;;;;;5035307;28;20144;-48
2023/08/15 12:34:59;;;;;;;3.67;1.65;;;25.60;99.90;;;;;;5035555;28;20025;-49
2023/08/15 12:37:25;;;;;;;5.35;2.20;;;25.90;99.90;;;;;;5035451;28;20057;-49
2023/08/15 12:39:51;;;;;;;3.70;1.60;;;26.10;99.90;;;;;;5035330;28;20029;-52
2023/08/15 12:42:17;;;;;;;6.10;2.72;;;26.20;99.90;;;;;;5034043;28;20044;-52
2023/08/15 12:44:43;;;;;;;3.58;1.35;;;26.30;99.90;;;;;;5033899;28;20021;-51